Time;durP1;ratioP1;P1;durP2;ratioP2;P2;SDS_P1;SDS_P2;PMS_P1;PMS_P2;Temp;Humidity;BMP_temperature;BMP_pressure;BME280_temperature;BME280_humidity;BME280_pressure;Samples;Min_cycle;Max_cycle;Signal;HPM_P1;HPM_P2
2021/09/07 00:02:14;;;;;;;;;;;;;;;23.02;43.44;101936.47;4938433;29;19923;-61
2021/09/07 00:04:41;;;;;;;;;;;;;;;22.97;43.77;101939.56;4938633;29;19962;-61
2021/09/07 00:07:08;;;;;;;;;;;;;;;22.91;43.73;101932.06;4938507;29;19922;-61
2021/09/07 00:09:34;;;;;;;;;;;;;;;22.89;43.87;101936.72;4938463;29;20356;-61
2021/09/07 00:12:01;;;;;;;;;;;;;;;22.90;43.68;101940.25;4921442;29;19923;-61
2021/09/07 00:14:27;;;;;;;;;;;;;;;22.83;44.06;101935.44;4919562;29;19929;-60
2021/09/07 00:16:54;;;;;;;;;;;;;;;22.79;44.43;101934.03;4931137;29;19923;-61
2021/09/07 00:19:21;;;;;;;;;;;;;;;22.77;44.30;101929.81;4938409;29;19923;-60
2021/09/07 00:21:51;;;;;;;;;;;;;;;22.76;44.53;101936.13;4938324;29;20299;-60
2021/09/07 00:24:19;;;;;;;;;;;;;;;22.72;44.80;101930.22;4938393;29;19923;-61
2021/09/07 00:26:45;;;;;;;;;;;;;;;22.66;45.24;101941.47;4938098;29;19930;-61
2021/09/07 00:29:12;;;;;;;;;;;;;;;22.62;44.96;101935.53;4938388;29;19929;-61
2021/09/07 00:31:38;;;;;;;;;;;;;;;22.54;45.35;101940.75;4938370;29;19926;-61
2021/09/07 00:34:05;;;;;;;;;;;;;;;22.50;45.46;101940.16;4932668;29;19923;-61
2021/09/07 00:36:31;;;;;;;;;;;;;;;22.48;45.64;101943.94;4919171;29;20009;-61
2021/09/07 00:38:58;;;;;;;;;;;;;;;22.42;45.69;101937.31;4918952;29;19923;-60
2021/09/07 00:41:24;;;;;;;;;;;;;;;22.42;46.19;101942.66;4918961;29;19927;-61
2021/09/07 00:43:51;;;;;;;;;;;;;;;22.37;46.25;101934.19;4918887;29;19923;-60
2021/09/07 00:46:17;;;;;;;;;;;;;;;22.38;46.31;101935.88;4918377;29;19924;-60
2021/09/07 00:48:44;;;;;;;;;;;;;;;22.43;45.88;101939.00;4918916;29;19923;-61
2021/09/07 00:51:10;;;;;;;;;;;;;;;22.43;46.09;101936.31;4918754;29;19923;-60
2021/09/07 00:53:38;;;;;;;;;;;;;;;22.44;45.84;101934.50;4918823;29;19923;-60
2021/09/07 00:56:05;;;;;;;;;;;;;;;22.43;46.21;101944.34;4918726;29;19923;-61
2021/09/07 00:58:32;;;;;;;;;;;;;;;22.47;45.97;101951.16;4918773;29;19930;-61
2021/09/07 01:00:59;;;;;;;;;;;;;;;22.46;45.71;101960.16;4918577;29;19927;-61
2021/09/07 01:03:26;;;;;;;;;;;;;;;22.54;45.78;101961.28;4918562;29;20010;-61
2021/09/07 01:05:53;;;;;;;;;;;;;;;22.55;45.18;101958.50;4918660;29;19923;-60
2021/09/07 01:08:19;;;;;;;;;;;;;;;22.55;45.32;101960.28;4918505;29;19927;-61
2021/09/07 01:10:46;;;;;;;;;;;;;;;22.59;44.76;101970.59;4918388;29;19923;-61
2021/09/07 01:13:12;;;;;;;;;;;;;;;22.63;44.38;101958.63;4918567;29;19978;-61
2021/09/07 01:15:39;;;;;;;;;;;;;;;22.62;44.68;101954.25;4918372;29;19970;-61
2021/09/07 01:18:05;;;;;;;;;;;;;;;22.61;44.26;101955.28;4918292;29;20284;-61
2021/09/07 01:20:32;;;;;;;;;;;;;;;22.61;44.01;101963.31;4918319;29;20364;-61
2021/09/07 01:22:58;;;;;;;;;;;;;;;22.59;44.08;101951.88;4918287;29;20392;-61
2021/09/07 01:25:25;;;;;;;;;;;;;;;22.58;44.11;101958.19;4918222;29;19930;-61
2021/09/07 01:27:51;;;;;;;;;;;;;;;22.55;44.19;101961.16;4918032;29;20436;-61
2021/09/07 01:30:18;;;;;;;;;;;;;;;22.58;43.82;101957.38;4918042;29;19930;-61
2021/09/07 01:32:44;;;;;;;;;;;;;;;22.54;43.65;101950.56;4918081;29;19926;-61
2021/09/07 01:35:11;;;;;;;;;;;;;;;22.53;43.62;101955.09;4918116;29;19923;-61
2021/09/07 01:37:38;;;;;;;;;;;;;;;22.51;43.77;101949.03;4918055;29;19929;-60
2021/09/07 01:40:06;;;;;;;;;;;;;;;22.48;43.96;101949.31;4917922;29;19927;-60
2021/09/07 01:42:33;;;;;;;;;;;;;;;22.44;43.96;101947.88;4917647;29;19923;-60
2021/09/07 01:44:59;;;;;;;;;;;;;;;22.39;44.03;101948.28;4917827;29;19923;-61
2021/09/07 01:47:26;;;;;;;;;;;;;;;22.33;44.25;101944.31;4917848;29;19945;-61
2021/09/07 01:49:52;;;;;;;;;;;;;;;22.28;44.36;101941.19;4917567;29;19978;-61
2021/09/07 01:52:19;;;;;;;;;;;;;;;22.22;44.87;101944.41;4917635;29;19929;-61
2021/09/07 01:54:46;;;;;;;;;;;;;;;22.18;44.65;101943.81;4917737;29;19930;-61
2021/09/07 01:57:13;;;;;;;;;;;;;;;22.17;45.19;101938.59;4917461;29;19923;-61
2021/09/07 01:59:39;;;;;;;;;;;;;;;22.16;44.94;101937.75;4917119;29;19930;-61
2021/09/07 02:02:06;;;;;;;;;;;;;;;22.13;45.04;101940.69;4917418;29;19923;-60
2021/09/07 02:04:33;;;;;;;;;;;;;;;22.08;45.18;101942.06;4917462;29;19923;-61
2021/09/07 02:06:59;;;;;;;;;;;;;;;22.02;45.58;101940.78;4917426;29;19923;-61
2021/09/07 02:09:26;;;;;;;;;;;;;;;21.95;45.64;101936.94;4917357;29;19927;-61
2021/09/07 02:11:53;;;;;;;;;;;;;;;21.93;45.57;101942.41;4917327;29;19922;-61
2021/09/07 02:14:20;;;;;;;;;;;;;;;21.93;45.62;101944.22;4917620;29;20292;-61
2021/09/07 02:16:46;;;;;;;;;;;;;;;21.89;45.60;101941.00;4917288;29;19930;-60
2021/09/07 02:19:13;;;;;;;;;;;;;;;21.83;45.81;101941.53;4917244;29;19923;-61
2021/09/07 02:21:40;;;;;;;;;;;;;;;21.75;46.47;101942.19;4917178;29;20004;-61
2021/09/07 02:24:06;;;;;;;;;;;;;;;21.73;46.62;101940.63;4915878;29;19923;-61
2021/09/07 02:26:33;;;;;;;;;;;;;;;21.70;46.39;101936.38;4917222;29;19927;-61
2021/09/07 02:28:59;;;;;;;;;;;;;;;21.70;46.39;101933.72;4917197;29;20304;-61
2021/09/07 02:31:26;;;;;;;;;;;;;;;21.65;46.48;101934.09;4917138;29;19923;-60
2021/09/07 02:33:52;;;;;;;;;;;;;;;21.64;46.54;101934.22;4916888;29;19970;-61
2021/09/07 02:36:21;;;;;;;;;;;;;;;21.49;47.05;101933.66;4917206;29;19923;-60
2021/09/07 02:38:47;;;;;;;;;;;;;;;21.58;46.89;101929.41;4916963;29;19922;-61
2021/09/07 02:41:14;;;;;;;;;;;;;;;21.54;46.80;101931.47;4916879;29;19930;-61
2021/09/07 02:43:40;;;;;;;;;;;;;;;21.48;47.05;101926.63;4916804;29;19946;-61
2021/09/07 02:46:07;;;;;;;;;;;;;;;21.47;47.36;101924.94;4916948;29;19930;-60
2021/09/07 02:48:33;;;;;;;;;;;;;;;21.49;47.29;101921.16;4916719;29;19966;-61
2021/09/07 02:51:00;;;;;;;;;;;;;;;21.50;47.25;101914.84;4916658;29;20308;-61
2021/09/07 02:53:26;;;;;;;;;;;;;;;21.47;47.45;101919.59;4916456;29;19929;-60
2021/09/07 02:55:53;;;;;;;;;;;;;;;21.49;47.23;101917.66;4916935;29;19923;-61
2021/09/07 02:58:20;;;;;;;;;;;;;;;21.52;47.21;101914.69;4916818;29;19923;-60
2021/09/07 03:00:46;;;;;;;;;;;;;;;21.51;47.13;101913.88;4916532;29;19923;-61
2021/09/07 03:03:13;;;;;;;;;;;;;;;21.48;47.12;101906.13;4919938;29;20331;-60
2021/09/07 03:05:40;;;;;;;;;;;;;;;21.48;47.06;101903.47;4932531;29;19922;-61
2021/09/07 03:08:06;;;;;;;;;;;;;;;21.48;47.34;101907.94;4927971;29;19927;-61
2021/09/07 03:10:33;;;;;;;;;;;;;;;21.43;47.22;101900.31;4919141;29;19930;-61
2021/09/07 03:13:00;;;;;;;;;;;;;;;21.41;47.24;101904.06;4919559;29;19923;-61
2021/09/07 03:15:26;;;;;;;;;;;;;;;21.36;47.61;101899.97;4919753;29;19923;-61
2021/09/07 03:17:53;;;;;;;;;;;;;;;21.36;47.69;101894.63;4919574;29;19978;-60
2021/09/07 03:20:19;;;;;;;;;;;;;;;21.38;47.60;101894.50;4919428;29;19923;-61
2021/09/07 03:22:46;;;;;;;;;;;;;;;21.37;47.34;101891.00;4919308;29;20368;-61
2021/09/07 03:25:12;;;;;;;;;;;;;;;;;;4919476;29;19923;-61
2021/09/07 03:27:39;;;;;;;;;;;;;;;21.30;47.54;101895.16;4919858;29;19927;-60
2021/09/07 03:30:06;;;;;;;;;;;;;;;21.27;47.80;101887.41;4919502;29;19927;-60
2021/09/07 03:32:32;;;;;;;;;;;;;;;21.23;47.58;101891.34;4919539;29;19930;-61
2021/09/07 03:34:59;;;;;;;;;;;;;;;21.19;47.69;101881.88;4919418;29;19923;-61
2021/09/07 03:37:26;;;;;;;;;;;;;;;21.16;48.10;101887.47;4919266;29;20376;-61
2021/09/07 03:39:52;;;;;;;;;;;;;;;21.13;47.70;101885.91;4919513;29;19930;-60
2021/09/07 03:42:19;;;;;;;;;;;;;;;21.12;47.71;101884.22;4919611;29;20056;-61
2021/09/07 03:44:45;;;;;;;;;;;;;;;21.17;47.48;101883.84;4919298;29;19983;-60
2021/09/07 03:47:11;;;;;;;;;;;;;;;21.15;47.63;101881.28;4919553;29;19978;-61
2021/09/07 03:49:40;;;;;;;;;;;;;;;21.18;47.54;101875.69;4919081;29;19923;-61
2021/09/07 03:52:07;;;;;;;;;;;;;;;21.16;47.92;101874.13;4919089;29;19931;-60
2021/09/07 03:54:34;;;;;;;;;;;;;;;21.11;48.27;101879.84;4919628;29;19933;-60
2021/09/07 03:57:00;;;;;;;;;;;;;;;21.08;48.11;101876.56;4919255;29;19927;-61
2021/09/07 03:59:27;;;;;;;;;;;;;;;21.07;48.36;101885.59;4919206;29;19923;-60
2021/09/07 04:01:54;;;;;;;;;;;;;;;21.01;48.38;101885.13;4919083;29;20265;-60
2021/09/07 04:04:24;;;;;;;;;;;;;;;20.98;48.47;101881.84;4919183;29;19923;-60
2021/09/07 04:06:51;;;;;;;;;;;;;;;20.99;48.41;101879.06;4919309;29;20300;-60
2021/09/07 04:09:19;;;;;;;;;;;;;;;21.03;48.44;101882.31;4919099;29;19950;-61
2021/09/07 04:11:45;;;;;;;;;;;;;;;21.03;48.37;101883.16;4919033;29;20458;-61
2021/09/07 04:14:12;;;;;;;;;;;;;;;21.06;48.23;101889.22;4919298;29;20291;-61
2021/09/07 04:16:39;;;;;;;;;;;;;;;21.06;48.08;101887.38;4919245;29;19927;-60
2021/09/07 04:19:05;;;;;;;;;;;;;;;21.02;48.18;101883.28;4919076;29;20430;-61
2021/09/07 04:21:32;;;;;;;;;;;;;;;21.03;48.03;101890.31;4916112;29;19923;-61
2021/09/07 04:23:58;;;;;;;;;;;;;;;20.97;48.27;101883.66;4916118;29;19939;-61
2021/09/07 04:26:25;;;;;;;;;;;;;;;20.96;48.40;101889.13;4916002;29;19922;-61
2021/09/07 04:28:51;;;;;;;;;;;;;;;20.94;48.56;101889.25;4915906;29;20439;-60
2021/09/07 04:31:18;;;;;;;;;;;;;;;20.89;48.95;101902.13;4916056;29;19923;-61
2021/09/07 04:33:45;;;;;;;;;;;;;;;20.85;49.04;101901.53;4915859;29;19926;-61
2021/09/07 04:36:12;;;;;;;;;;;;;;;20.84;49.24;101899.00;4916008;29;19927;-60
2021/09/07 04:38:38;;;;;;;;;;;;;;;20.83;48.99;101899.97;4915876;29;19923;-61
2021/09/07 04:41:05;;;;;;;;;;;;;;;20.84;49.19;101899.00;4915902;29;19926;-60
2021/09/07 04:43:31;;;;;;;;;;;;;;;20.79;49.19;101904.69;4915718;29;19938;-60
2021/09/07 04:45:58;;;;;;;;;;;;;;;20.77;49.38;101897.78;4915499;29;19946;-60
2021/09/07 04:48:24;;;;;;;;;;;;;;;20.74;49.58;101901.56;4915541;29;19966;-60
2021/09/07 04:50:51;;;;;;;;;;;;;;;20.73;49.78;101896.38;4915359;29;19923;-60
2021/09/07 04:53:18;;;;;;;;;;;;;;;20.66;49.45;101894.16;4915695;29;19927;-62
2021/09/07 04:55:44;;;;;;;;;;;;;;;20.63;49.87;101898.88;4915479;29;20365;-63
2021/09/07 04:58:11;;;;;;;;;;;;;;;20.63;49.80;101890.88;4915641;29;19923;-63
2021/09/07 05:00:37;;;;;;;;;;;;;;;20.61;49.87;101891.03;4915326;29;19971;-62
2021/09/07 05:03:04;;;;;;;;;;;;;;;20.61;49.82;101892.81;4915183;29;19930;-63
2021/09/07 05:05:31;;;;;;;;;;;;;;;20.60;49.98;101896.50;4915231;29;19923;-63
2021/09/07 05:07:58;;;;;;;;;;;;;;;20.61;49.63;101899.03;4915227;29;20087;-63
2021/09/07 05:10:25;;;;;;;;;;;;;;;20.63;49.67;101897.09;4915195;29;19923;-63
2021/09/07 05:12:52;;;;;;;;;;;;;;;20.63;49.84;101899.75;4915140;29;19927;-62
2021/09/07 05:15:18;;;;;;;;;;;;;;;20.64;49.72;101904.09;4915361;29;20410;-62
2021/09/07 05:17:45;;;;;;;;;;;;;;;20.66;49.71;101909.31;4915380;29;19923;-62
2021/09/07 05:20:12;;;;;;;;;;;;;;;20.67;49.75;101909.19;4915438;29;19927;-63
2021/09/07 05:22:38;;;;;;;;;;;;;;;20.73;49.75;101909.69;4916861;29;19930;-62
2021/09/07 05:25:05;;;;;;;;;;;;;;;20.75;49.45;101916.59;4919944;29;19927;-63
2021/09/07 05:27:33;;;;;;;;;;;;;;;20.81;49.34;101917.91;4916561;29;19927;-62
2021/09/07 05:29:59;;;;;;;;;;;;;;;20.85;49.17;101914.88;4917231;29;20392;-62
2021/09/07 05:32:26;;;;;;;;;;;;;;;20.88;49.52;101921.78;4914852;29;19927;-62
2021/09/07 05:34:53;;;;;;;;;;;;;;;20.88;49.66;101911.94;4914703;29;19930;-62
2021/09/07 05:37:23;;;;;;;;;;;;;;;20.95;49.19;101911.44;4915169;29;19930;-62
2021/09/07 05:39:52;;;;;;;;;;;;;;;21.03;49.01;101925.00;4914324;29;20301;-63
2021/09/07 05:42:18;;;;;;;;;;;;;;;21.09;48.95;101918.31;4916230;29;20142;-62
2021/09/07 05:44:45;;;;;;;;;;;;;;;21.17;48.86;101923.88;4917465;29;19930;-63
2021/09/07 05:47:11;;;;;;;;;;;;;;;21.23;48.45;101914.50;4918344;29;19922;-63
2021/09/07 05:49:38;;;;;;;;;;;;;;;21.26;48.48;101925.75;4933370;29;19929;-63
2021/09/07 05:52:05;;;;;;;;;;;;;;;21.31;48.45;101923.56;4927781;29;20014;-63
2021/09/07 05:54:31;;;;;;;;;;;;;;;21.33;48.44;101921.63;4914483;29;20001;-63
2021/09/07 05:56:58;;;;;;;;;;;;;;;;;;4914375;29;19923;-63
2021/09/07 05:59:25;;;;;;;;;;;;;;;21.33;48.79;101921.63;4920518;29;19922;-63
2021/09/07 06:01:51;;;;;;;;;;;;;;;21.41;49.08;101925.44;4933047;29;20343;-63
2021/09/07 06:04:18;;;;;;;;;;;;;;;21.49;48.71;101926.50;4933395;29;19929;-63
2021/09/07 06:06:45;;;;;;;;;;;;;;;21.51;49.16;101921.88;4933091;29;19929;-63
2021/09/07 06:09:11;;;;;;;;;;;;;;;21.56;48.98;101929.53;4933403;29;19930;-63
2021/09/07 06:11:38;;;;;;;;;;;;;;;21.62;49.44;101928.16;4933147;29;20368;-63
2021/09/07 06:14:07;;;;;;;;;;;;;;;21.67;49.48;101933.97;4932972;29;19923;-63
2021/09/07 06:16:33;;;;;;;;;;;;;;;21.80;49.11;101939.09;4923765;29;19931;-63
2021/09/07 06:19:00;;;;;;;;;;;;;;;21.88;49.07;101941.97;4912504;29;20376;-63
2021/09/07 06:21:26;;;;;;;;;;;;;;;21.95;48.89;101935.13;4913154;29;19923;-63
2021/09/07 06:23:58;;;;;;;;;;;;;;;22.09;48.47;101936.56;4913650;29;19923;-63
2021/09/07 06:26:25;;;;;;;;;;;;;;;22.18;48.23;101925.09;4913897;29;19962;-62
2021/09/07 06:28:51;;;;;;;;;;;;;;;22.32;47.97;101921.22;4923060;29;19930;-63
2021/09/07 06:31:18;;;;;;;;;;;;;;;22.46;47.86;101922.69;4915914;29;19926;-63
2021/09/07 06:33:45;;;;;;;;;;;;;;;22.57;47.44;101926.25;4932789;29;19968;-63
2021/09/07 06:36:11;;;;;;;;;;;;;;;22.55;47.32;101928.19;4914756;29;20032;-63
2021/09/07 06:38:38;;;;;;;;;;;;;;;22.53;47.52;101936.38;4913935;29;20391;-63
2021/09/07 06:41:07;;;;;;;;;;;;;;;22.61;47.22;101925.84;4913464;29;19923;-63
2021/09/07 06:43:35;;;;;;;;;;;;;;;22.89;46.40;101928.69;4922950;29;19931;-61
2021/09/07 06:46:01;;;;;;;;;;;;;;;23.04;46.35;101937.16;4932572;29;20729;-63
2021/09/07 06:48:28;;;;;;;;;;;;;;;23.08;46.23;101925.16;4932486;29;19927;-63
2021/09/07 06:50:54;;;;;;;;;;;;;;;23.23;45.99;101920.28;4932515;29;19923;-63
2021/09/07 06:53:21;;;;;;;;;;;;;;;23.37;45.61;101923.53;4932498;29;19930;-63
2021/09/07 06:55:48;;;;;;;;;;;;;;;23.53;45.13;101921.09;4932620;29;19930;-63
2021/09/07 06:58:14;;;;;;;;;;;;;;;23.71;44.76;101928.41;4925033;29;20225;-63
2021/09/07 07:00:41;;;;;;;;;;;;;;;23.81;44.64;101922.03;4915583;29;19923;-63
2021/09/07 07:03:08;;;;;;;;;;;;;;;23.97;44.32;101915.22;4929760;29;19922;-63
2021/09/07 07:05:35;;;;;;;;;;;;;;;24.09;44.09;101918.59;4931426;29;19963;-61
2021/09/07 07:08:02;;;;;;;;;;;;;;;24.06;43.91;101922.41;4924819;29;19934;-61
2021/09/07 07:10:28;;;;;;;;;;;;;;;24.07;43.95;101917.88;4929430;29;19923;-61
2021/09/07 07:12:55;;;;;;;;;;;;;;;24.31;43.16;101919.19;4926376;29;19966;-61
2021/09/07 07:15:21;;;;;;;;;;;;;;;24.52;42.76;101919.78;4929340;29;19930;-61
2021/09/07 07:17:48;;;;;;;;;;;;;;;24.53;42.53;101917.94;4931352;29;19976;-62
2021/09/07 07:20:15;;;;;;;;;;;;;;;24.68;41.97;101915.63;4930606;29;19931;-61
2021/09/07 07:22:41;;;;;;;;;;;;;;;24.90;41.40;101907.13;4931733;29;19923;-61
2021/09/07 07:25:08;;;;;;;;;;;;;;;25.14;40.83;101919.09;4931606;29;19929;-61
2021/09/07 07:27:38;;;;;;;;;;;;;;;25.32;40.27;101910.16;4931340;29;19930;-61
2021/09/07 07:30:06;;;;;;;;;;;;;;;25.49;39.76;101911.16;4931154;29;19927;-61
2021/09/07 07:32:33;;;;;;;;;;;;;;;25.67;39.00;101908.44;4931509;29;19923;-61
2021/09/07 07:35:00;;;;;;;;;;;;;;;25.78;38.54;101916.22;4928549;29;19950;-61
2021/09/07 07:37:26;;;;;;;;;;;;;;;25.76;38.50;101915.53;4930595;29;19994;-61
2021/09/07 07:39:53;;;;;;;;;;;;;;;25.68;38.39;101923.56;4930983;29;19979;-61
2021/09/07 07:42:20;;;;;;;;;;;;;;;25.53;38.39;101925.97;4924376;29;20372;-61
2021/09/07 07:44:48;;;;;;;;;;;;;;;25.52;38.45;101927.81;4929339;29;20364;-61
2021/09/07 07:47:14;;;;;;;;;;;;;;;25.52;38.25;101924.28;4929545;29;20371;-62
2021/09/07 07:49:41;;;;;;;;;;;;;;;25.77;37.54;101925.28;4930814;29;19926;-61
2021/09/07 07:52:07;;;;;;;;;;;;;;;26.08;36.73;101936.44;4929412;29;19946;-61
2021/09/07 07:54:35;;;;;;;;;;;;;;;26.24;36.31;101926.75;4929815;29;20023;-61
2021/09/07 07:57:02;;;;;;;;;;;;;;;26.43;35.98;101930.19;4925389;29;20387;-61
2021/09/07 07:59:29;;;;;;;;;;;;;;;26.74;35.31;101930.47;4932570;29;19977;-63
2021/09/07 08:01:55;;;;;;;;;;;;;;;26.68;35.15;101933.78;4933395;29;19926;-63
2021/09/07 08:04:23;;;;;;;;;;;;;;;26.41;35.56;101941.13;4933331;29;19923;-64
2021/09/07 08:06:49;;;;;;;;;;;;;;;26.20;35.80;101950.44;4933986;29;19923;-64
2021/09/07 08:09:16;;;;;;;;;;;;;;;26.07;35.98;101950.88;4934305;29;20311;-64
2021/09/07 08:11:43;;;;;;;;;;;;;;;26.03;35.98;101954.00;4928233;29;19926;-64
2021/09/07 08:14:09;;;;;;;;;;;;;;;25.94;36.23;101953.16;4932574;29;19994;-63
2021/09/07 08:16:36;;;;;;;;;;;;;;;26.10;35.70;101956.94;4933660;29;20336;-63
2021/09/07 08:19:02;;;;;;;;;;;;;;;26.15;35.60;101954.63;4934453;29;19934;-63
2021/09/07 08:21:29;;;;;;;;;;;;;;;26.08;35.77;101954.44;4933731;29;20337;-62
2021/09/07 08:23:57;;;;;;;;;;;;;;;26.03;35.91;101954.88;4934586;29;19929;-62
2021/09/07 08:26:24;;;;;;;;;;;;;;;26.00;35.98;101951.66;4934043;29;19930;-62
2021/09/07 08:28:51;;;;;;;;;;;;;;;25.97;36.05;101949.28;4931716;29;19933;-62
2021/09/07 08:31:18;;;;;;;;;;;;;;;26.08;35.68;101963.34;4934231;29;19926;-63
2021/09/07 08:33:44;;;;;;;;;;;;;;;26.11;35.49;101964.03;4934377;29;19975;-62
2021/09/07 08:36:11;;;;;;;;;;;;;;;26.24;35.44;101967.97;4934350;29;19923;-62
2021/09/07 08:38:37;;;;;;;;;;;;;;;26.51;34.83;101966.06;4934942;29;19980;-62
2021/09/07 08:41:04;;;;;;;;;;;;;;;26.67;34.35;101965.25;4934346;29;19923;-62
2021/09/07 08:43:31;;;;;;;;;;;;;;;27.07;33.76;101970.94;4930925;29;19933;-61
2021/09/07 08:45:58;;;;;;;;;;;;;;;27.48;33.20;101965.59;4933708;29;19931;-62
2021/09/07 08:48:25;;;;;;;;;;;;;;;27.84;32.70;101967.88;4917783;29;19923;-63
2021/09/07 08:50:54;;;;;;;;;;;;;;;27.98;32.31;101968.19;4914914;29;19923;-62
2021/09/07 08:53:28;;;;;;;;;;;;;;;28.02;32.19;101972.22;4915025;29;19931;-63
2021/09/07 08:55:55;;;;;;;;;;;;;;;28.17;31.84;101965.13;4915371;29;20307;-63
2021/09/07 08:58:22;;;;;;;;;;;;;;;28.57;31.25;101964.28;4914918;29;20012;-62
2021/09/07 09:00:49;;;;;;;;;;;;;;;28.80;30.68;101965.22;4914973;29;19923;-64
2021/09/07 09:03:16;;;;;;;;;;;;;;;29.16;30.05;101955.66;4915120;29;20296;-63
2021/09/07 09:05:44;;;;;;;;;;;;;;;29.04;30.05;101965.22;4915226;29;19974;-63
2021/09/07 09:08:12;;;;;;;;;;;;;;;28.28;31.28;101965.78;4915292;29;19923;-62
2021/09/07 09:10:43;;;;;;;;;;;;;;;27.85;31.78;101961.47;4924275;29;19970;-62
2021/09/07 09:13:16;;;;;;;;;;;;;;;27.67;31.90;101959.00;4933368;29;19947;-62
2021/09/07 09:16:11;;;;;;;;;;;;;;;27.52;32.00;101955.31;4933851;29;20372;-62
2021/09/07 09:18:41;;;;;;;;;;;;;;;27.33;32.23;101957.28;4933033;29;20013;-62
2021/09/07 09:21:41;;;;;;;;;;;;;;;27.49;31.98;101955.63;4933723;29;19961;-62
2021/09/07 09:24:15;;;;;;;;;;;;;;;27.78;31.13;101957.81;4932721;29;20408;-63
2021/09/07 09:27:01;;;;;;;;;;;;;;;28.15;30.49;101958.22;4933587;29;20379;-64
2021/09/07 09:29:32;;;;;;;;;;;;;;;27.89;30.87;101955.75;4932922;29;19926;-63
2021/09/07 09:32:00;;;;;;;;;;;;;;;27.89;30.85;101948.50;4933558;29;19927;-63
2021/09/07 09:34:27;;;;;;;;;;;;;;;28.08;30.63;101950.00;4933497;29;19923;-63
2021/09/07 09:36:55;;;;;;;;;;;;;;;28.90;29.14;101953.31;4931997;29;19942;-64
2021/09/07 09:39:37;;;;;;;;;;;;;;;29.12;28.69;101949.78;4922456;29;19945;-62
2021/09/07 09:42:04;;;;;;;;;;;;;;;29.76;27.66;101945.88;4933019;29;19922;-62
2021/09/07 09:44:31;;;;;;;;;;;;;;;30.12;27.47;101944.31;4933181;29;19922;-62
2021/09/07 09:46:58;;;;;;;;;;;;;;;30.40;26.81;101939.03;4933070;29;19927;-63
2021/09/07 09:49:28;;;;;;;;;;;;;;;30.57;26.50;101936.13;4933033;29;19923;-63
2021/09/07 09:52:05;;;;;;;;;;;;;;;30.46;26.75;101927.44;4932931;29;19922;-63
2021/09/07 09:54:33;;;;;;;;;;;;;;;30.55;26.42;101930.91;4933181;29;19978;-64
2021/09/07 09:57:01;;;;;;;;;;;;;;;30.51;26.48;101934.19;4926841;29;19929;-62
2021/09/07 09:59:28;;;;;;;;;;;;;;;30.74;26.52;101921.31;4932099;29;19930;-62
2021/09/07 10:01:59;;;;;;;;;;;;;;;31.12;25.81;101914.78;4932657;29;19923;-62
2021/09/07 10:04:27;;;;;;;;;;;;;;;31.26;25.69;101913.88;4929793;29;19945;-61
2021/09/07 10:06:54;;;;;;;;;;;;;;;31.50;25.88;101909.03;4927816;29;19930;-60
2021/09/07 10:09:22;;;;;;;;;;;;;;;31.65;25.63;101908.13;4929970;29;19922;-61
2021/09/07 10:11:56;;;;;;;;;;;;;;;31.85;25.42;101910.97;4932204;29;19930;-61
2021/09/07 10:14:27;;;;;;;;;;;;;;;31.75;25.47;101905.91;4932144;29;20414;-62
2021/09/07 10:17:13;;;;;;;;;;;;;;;31.83;25.18;101904.88;4929974;29;19926;-61
2021/09/07 10:19:47;;;;;;;;;;;;;;;31.93;25.09;101899.91;4930155;29;20379;-62
2021/09/07 10:25:37;;;;;;;;;;;;;;;32.13;24.17;101891.03;4928884;29;20299;-61
2021/09/07 10:28:09;;;;;;;;;;;;;;;32.18;23.99;101896.69;4929081;29;20459;-61
2021/09/07 10:30:54;;;;;;;;;;;;;;;32.31;23.69;101887.78;4927144;29;20427;-62
2021/09/07 10:33:36;;;;;;;;;;;;;;;32.50;23.25;101886.16;4913729;29;20734;-62
2021/09/07 10:36:07;;;;;;;;;;;;;;;32.54;23.02;101879.25;4917310;29;19930;-61
2021/09/07 10:38:40;;;;;;;;;;;;;;;32.46;23.07;101883.00;4914399;29;20435;-62
2021/09/07 10:41:07;;;;;;;;;;;;;;;32.43;23.00;101874.44;4915608;29;19956;-62
2021/09/07 10:43:48;;;;;;;;;;;;;;;32.22;22.93;101877.09;4913279;29;19983;-62
2021/09/07 10:46:37;;;;;;;;;;;;;;;32.15;23.00;101867.22;4913204;29;19933;-62
2021/09/07 10:49:20;;;;;;;;;;;;;;;32.29;22.63;101865.41;4912643;29;19983;-62
2021/09/07 10:52:18;;;;;;;;;;;;;;;32.62;22.63;101860.06;4915892;29;20331;-61
2021/09/07 10:54:48;;;;;;;;;;;;;;;32.50;21.96;101848.94;4920702;29;19978;-62
2021/09/07 10:57:33;;;;;;;;;;;;;;;32.76;21.08;101849.22;4915239;29;19927;-63
2021/09/07 11:00:07;;;;;;;;;;;;;;;32.96;21.06;101851.94;4926229;29;19974;-63
2021/09/07 11:02:41;;;;;;;;;;;;;;;32.96;20.99;101850.03;4919505;29;20017;-62
2021/09/07 11:05:33;;;;;;;;;;;;;;;33.02;20.73;101846.47;4931677;29;19980;-63
2021/09/07 11:08:04;;;;;;;;;;;;;;;33.09;20.79;101841.06;4922597;29;20391;-64
2021/09/07 11:10:37;;;;;;;;;;;;;;;33.15;21.08;101833.94;4913608;29;19927;-63
2021/09/07 11:13:05;;;;;;;;;;;;;;;33.24;21.20;101840.81;4931275;29;19923;-63
2021/09/07 11:15:37;;;;;;;;;;;;;;;33.24;21.26;101834.53;4931071;29;20273;-64
2021/09/07 11:18:03;;;;;;;;;;;;;;;33.33;21.08;101828.69;4927664;29;19923;-64
2021/09/07 11:20:33;;;;;;;;;;;;;;;33.37;21.11;101831.84;4913069;29;20304;-65
2021/09/07 11:23:16;;;;;;;;;;;;;;;33.39;20.85;101826.19;4913233;29;19990;-63
2021/09/07 11:25:44;;;;;;;;;;;;;;;33.37;20.83;101829.94;4911840;29;20295;-65
2021/09/07 11:28:12;;;;;;;;;;;;;;;33.22;21.09;101821.97;4915241;29;20379;-63
2021/09/07 11:30:40;;;;;;;;;;;;;;;33.54;20.58;101816.69;4923261;29;20384;-63
2021/09/07 11:33:11;;;;;;;;;;;;;;;33.66;20.38;101813.28;4935208;29;19974;-63
2021/09/07 11:35:45;;;;;;;;;;;;;;;33.68;20.87;101809.31;4935517;29;19923;-62
2021/09/07 11:38:14;;;;;;;;;;;;;;;33.49;20.69;101807.50;4934185;29;19927;-62
2021/09/07 11:40:52;;;;;;;;;;;;;;;33.50;20.17;101809.19;4935310;29;19923;-62
2021/09/07 11:43:36;;;;;;;;;;;;;;;33.57;20.30;101795.53;4935161;29;19934;-62
2021/09/07 11:46:02;;;;;;;;;;;;;;;33.34;20.28;101795.00;4934825;29;19930;-62
2021/09/07 11:48:29;;;;;;;;;;;;;;;33.29;20.55;101796.69;4935365;29;20005;-62
2021/09/07 11:50:56;;;;;;;;;;;;;;;33.26;20.57;101792.47;4935185;29;20355;-64
2021/09/07 11:53:22;;;;;;;;;;;;;;;33.34;20.17;101795.00;4935168;29;19929;-63
2021/09/07 11:55:50;;;;;;;;;;;;;;;33.26;20.36;101797.91;4935192;29;19969;-63
2021/09/07 11:58:23;;;;;;;;;;;;;;;33.15;21.05;101790.41;4927411;29;20265;-63
2021/09/07 12:01:01;;;;;;;;;;;;;;;33.04;21.18;101795.44;4915541;29;20300;-62
2021/09/07 12:03:34;;;;;;;;;;;;;;;33.25;20.69;101787.25;4917414;29;19923;-63
2021/09/07 12:06:01;;;;;;;;;;;;;;;33.67;20.17;101785.03;4919657;29;20620;-62
2021/09/07 12:08:45;;;;;;;;;;;;;;;33.51;20.08;101797.25;4934560;29;19926;-62
2021/09/07 12:11:13;;;;;;;;;;;;;;;33.67;19.89;101790.47;4932089;29;19929;-64
2021/09/07 12:13:40;;;;;;;;;;;;;;;33.47;20.59;101785.09;4934750;29;20296;-63
2021/09/07 12:16:07;;;;;;;;;;;;;;;33.09;20.80;101793.97;4934539;29;19981;-64
2021/09/07 12:18:38;;;;;;;;;;;;;;;32.42;21.68;101786.66;4926868;29;19974;-64
2021/09/07 12:21:08;;;;;;;;;;;;;;;31.95;22.29;101786.53;4915722;29;19931;-64
2021/09/07 12:23:36;;;;;;;;;;;;;;;31.73;22.26;101777.69;4915662;29;19934;-62
2021/09/07 12:26:03;;;;;;;;;;;;;;;31.42;22.72;101787.94;4916047;29;19933;-63
2021/09/07 12:28:30;;;;;;;;;;;;;;;31.20;23.12;101779.09;4915891;29;19941;-63
2021/09/07 12:31:12;;;;;;;;;;;;;;;30.97;23.40;101773.03;4915229;29;19953;-63
2021/09/07 12:33:47;;;;;;;;;;;;;;;30.78;23.72;101770.00;4915311;29;19927;-63
2021/09/07 12:36:15;;;;;;;;;;;;;;;30.62;24.02;101763.00;4925132;29;19929;-63
2021/09/07 12:38:41;;;;;;;;;;;;;;;30.58;24.15;101767.13;4933791;29;19948;-62
2021/09/07 12:41:16;;;;;;;;;;;;;;;30.44;24.21;101769.69;4933323;29;19957;-62
2021/09/07 12:43:46;;;;;;;;;;;;;;;30.48;24.18;101770.16;4933190;29;19923;-63
2021/09/07 12:46:17;;;;;;;;;;;;;;;30.49;24.19;101761.03;4933606;29;20264;-62
2021/09/07 12:48:45;;;;;;;;;;;;;;;30.43;24.36;101765.28;4931555;29;19929;-61